Arctur — T8A2555 — position and weather

sailwx.info

Track history (hours):
 
Tides and Currents Weather Stations Pressure Air Temp Water Temp Dewpoint Dewpoint Depression Visibility Wind Speed Wind Dir Waves Ship Positions

Arctur

Last reported at 2017-Dec-12 19:54 UTC. Time now 2017-Dec-18 03:25 UTC.
Position N 45°30' E 036°44'.

Length 108 m; draft 2.4 m.

Type: Cargo ship. MMSI: 511472000.

Date/timePositionNaut miles runAvg speedWind from/ knotsBaromVisibWave heightAir tempDewpointWater temp
2017-Dec-12 19:54N 45°30' E 036°44'4 8.7
2017-Dec-12 19:29N 45°27' E 036°42'4 8.1
2017-Dec-12 19:01N 45°23' E 036°41'3 6.2
2017-Dec-12 18:30N 45°20' E 036°38'4 8.6
2017-Dec-12 18:00N 45°19' E 036°33'4 7.0
2017-Dec-12 17:30N 45°17' E 036°29'5 0.2
2017-Dec-11 14:53N 45°13' E 036°32'0 0.0
2017-Dec-11 14:02N 45°13' E 036°32'0 0.0
2017-Dec-11 13:59N 45°13' E 036°32'0 0.0
2017-Dec-11 13:29N 45°13' E 036°32'0 0.0
2017-Dec-11 12:53N 45°13' E 036°32'0 0.0
2017-Dec-11 12:26N 45°13' E 036°32'0 0.0
2017-Dec-11 11:50N 45°13' E 036°32'0 0.0
2017-Dec-11 11:26N 45°13' E 036°32'0 0.0
2017-Dec-11 10:56N 45°13' E 036°32'0 0.0
2017-Dec-11 10:20N 45°13' E 036°32'0 0.0
2017-Dec-11 09:59N 45°13' E 036°32'0 0.0
2017-Dec-11 08:26N 45°13' E 036°32'0 0.0
2017-Dec-11 07:59N 45°13' E 036°32'0 0.0
2017-Dec-11 06:35N 45°13' E 036°32'0 0.1
2017-Dec-11 06:13N 45°13' E 036°32'0 0.0
2017-Dec-11 05:58N 45°13' E 036°32'0 0.0
2017-Dec-11 05:25N 45°13' E 036°32'0 0.0
2017-Dec-11 01:25N 45°13' E 036°32'0 0.0
2017-Dec-10 22:25N 45°13' E 036°32'0 0.0
2017-Dec-10 19:31N 45°13' E 036°32'0 0.0
2017-Dec-10 19:25N 45°13' E 036°32'0 0.0
2017-Dec-10 18:58N 45°13' E 036°32'0 0.0
2017-Dec-10 15:49N 45°13' E 036°32'0 0.0
2017-Dec-10 15:19N 45°13' E 036°32'0 0.0
2017-Dec-10 14:52N 45°13' E 036°32'0 0.0
2017-Dec-10 14:25N 45°13' E 036°32'0 0.0
2017-Dec-10 13:58N 45°13' E 036°32'0 0.0
2017-Dec-10 13:16N 45°13' E 036°32'0 0.0
2017-Dec-10 12:58N 45°13' E 036°32'0 0.0
2017-Dec-10 12:28N 45°13' E 036°32'0 0.0
2017-Dec-10 11:58N 45°13' E 036°32'0 0.0
2017-Dec-10 11:28N 45°13' E 036°32'0 0.0
2017-Dec-10 10:46N 45°13' E 036°32'0 0.0
2017-Dec-10 10:25N 45°13' E 036°32'0 0.0
2017-Dec-10 09:46N 45°13' E 036°32'0 0.0
2017-Dec-10 09:28N 45°13' E 036°32'0 0.0
2017-Dec-10 08:49N 45°13' E 036°32'0 0.0
2017-Dec-10 08:25N 45°13' E 036°32'0 0.0
2017-Dec-10 07:52N 45°13' E 036°32'0 0.0
2017-Dec-10 07:19N 45°13' E 036°32'0 0.0
2017-Dec-10 06:43N 45°13' E 036°32'0 0.0
2017-Dec-10 06:13N 45°13' E 036°32'0 0.0
2017-Dec-10 05:55N 45°13' E 036°32'0 0.0
2017-Dec-10 05:25N 45°13' E 036°32'0 0.0
2017-Dec-10 04:58N 45°13' E 036°32'0 0.0
2017-Dec-10 04:25N 45°13' E 036°32'0 0.0
2017-Dec-10 03:52N 45°13' E 036°32'0 0.0
2017-Dec-10 03:28N 45°13' E 036°32'0 0.0
2017-Dec-10 02:58N 45°13' E 036°32'0 0.0
2017-Dec-10 02:28N 45°13' E 036°32'0 0.0
2017-Dec-10 01:58N 45°13' E 036°32'0 0.0
2017-Dec-10 01:25N 45°13' E 036°32'0 0.0
2017-Dec-10 00:58N 45°13' E 036°32'0 0.0
2017-Dec-10 00:25N 45°13' E 036°32'0 0.0
2017-Dec-09 23:55N 45°13' E 036°32'0 0.0
2017-Dec-09 22:49N 45°13' E 036°32'0 0.0
2017-Dec-09 22:28N 45°13' E 036°32'0 0.0
2017-Dec-09 20:58N 45°13' E 036°32'0 0.0
2017-Dec-09 19:37N 45°13' E 036°32'0 0.0
2017-Dec-09 19:22N 45°13' E 036°32'0 0.0
2017-Dec-09 18:04N 45°13' E 036°32'0 0.5
2017-Dec-09 18:01N 45°13' E 036°32'3 4.5
2017-Dec-09 17:26N 45°12' E 036°29'3 6.8
2017-Dec-09 17:01N 45°09' E 036°29'  
Track history (hours):
 
Tides and Currents Weather Stations Pressure Air Temp Water Temp Dewpoint Dewpoint Depression Visibility Wind Speed Wind Dir Waves Ship Positions

Arctur

Last reported at 2017-Dec-12 19:54 UTC. Time now 2017-Dec-18 03:25 UTC.
Position N 45°30' E 036°44'.

Length 108 m; draft 2.4 m.

Type: Cargo ship. MMSI: 511472000.

Date/timePositionNaut miles runAvg speedWind from/ knotsBaromVisibWave heightAir tempDewpointWater temp
2017-Dec-12 19:54N 45°30' E 036°44'4 8.7
2017-Dec-12 19:29N 45°27' E 036°42'4 8.1
2017-Dec-12 19:01N 45°23' E 036°41'3 6.2
2017-Dec-12 18:30N 45°20' E 036°38'4 8.6
2017-Dec-12 18:00N 45°19' E 036°33'4 7.0
2017-Dec-12 17:30N 45°17' E 036°29'5 0.2
2017-Dec-11 14:53N 45°13' E 036°32'0 0.0
2017-Dec-11 14:02N 45°13' E 036°32'0 0.0
2017-Dec-11 13:59N 45°13' E 036°32'0 0.0
2017-Dec-11 13:29N 45°13' E 036°32'0 0.0
2017-Dec-11 12:53N 45°13' E 036°32'0 0.0
2017-Dec-11 12:26N 45°13' E 036°32'0 0.0
2017-Dec-11 11:50N 45°13' E 036°32'0 0.0
2017-Dec-11 11:26N 45°13' E 036°32'0 0.0
2017-Dec-11 10:56N 45°13' E 036°32'0 0.0
2017-Dec-11 10:20N 45°13' E 036°32'0 0.0
2017-Dec-11 09:59N 45°13' E 036°32'0 0.0
2017-Dec-11 08:26N 45°13' E 036°32'0 0.0
2017-Dec-11 07:59N 45°13' E 036°32'0 0.0
2017-Dec-11 06:35N 45°13' E 036°32'0 0.1
2017-Dec-11 06:13N 45°13' E 036°32'0 0.0
2017-Dec-11 05:58N 45°13' E 036°32'0 0.0
2017-Dec-11 05:25N 45°13' E 036°32'0 0.0
2017-Dec-11 01:25N 45°13' E 036°32'0 0.0
2017-Dec-10 22:25N 45°13' E 036°32'0 0.0
2017-Dec-10 19:31N 45°13' E 036°32'0 0.0
2017-Dec-10 19:25N 45°13' E 036°32'0 0.0
2017-Dec-10 18:58N 45°13' E 036°32'0 0.0
2017-Dec-10 15:49N 45°13' E 036°32'0 0.0
2017-Dec-10 15:19N 45°13' E 036°32'0 0.0
2017-Dec-10 14:52N 45°13' E 036°32'0 0.0
2017-Dec-10 14:25N 45°13' E 036°32'0 0.0
2017-Dec-10 13:58N 45°13' E 036°32'0 0.0
2017-Dec-10 13:16N 45°13' E 036°32'0 0.0
2017-Dec-10 12:58N 45°13' E 036°32'0 0.0
2017-Dec-10 12:28N 45°13' E 036°32'0 0.0
2017-Dec-10 11:58N 45°13' E 036°32'0 0.0
2017-Dec-10 11:28N 45°13' E 036°32'0 0.0
2017-Dec-10 10:46N 45°13' E 036°32'0 0.0
2017-Dec-10 10:25N 45°13' E 036°32'0 0.0
2017-Dec-10 09:46N 45°13' E 036°32'0 0.0
2017-Dec-10 09:28N 45°13' E 036°32'0 0.0
2017-Dec-10 08:49N 45°13' E 036°32'0 0.0
2017-Dec-10 08:25N 45°13' E 036°32'0 0.0
2017-Dec-10 07:52N 45°13' E 036°32'0 0.0
2017-Dec-10 07:19N 45°13' E 036°32'0 0.0
2017-Dec-10 06:43N 45°13' E 036°32'0 0.0
2017-Dec-10 06:13N 45°13' E 036°32'0 0.0
2017-Dec-10 05:55N 45°13' E 036°32'0 0.0
2017-Dec-10 05:25N 45°13' E 036°32'0 0.0
2017-Dec-10 04:58N 45°13' E 036°32'0 0.0
2017-Dec-10 04:25N 45°13' E 036°32'0 0.0
2017-Dec-10 03:52N 45°13' E 036°32'0 0.0
2017-Dec-10 03:28N 45°13' E 036°32'0 0.0
2017-Dec-10 02:58N 45°13' E 036°32'0 0.0
2017-Dec-10 02:28N 45°13' E 036°32'0 0.0
2017-Dec-10 01:58N 45°13' E 036°32'0 0.0
2017-Dec-10 01:25N 45°13' E 036°32'0 0.0
2017-Dec-10 00:58N 45°13' E 036°32'0 0.0
2017-Dec-10 00:25N 45°13' E 036°32'0 0.0
2017-Dec-09 23:55N 45°13' E 036°32'0 0.0
2017-Dec-09 22:49N 45°13' E 036°32'0 0.0
2017-Dec-09 22:28N 45°13' E 036°32'0 0.0
2017-Dec-09 20:58N 45°13' E 036°32'0 0.0
2017-Dec-09 19:37N 45°13' E 036°32'0 0.0
2017-Dec-09 19:22N 45°13' E 036°32'0 0.0
2017-Dec-09 18:04N 45°13' E 036°32'0 0.5
2017-Dec-09 18:01N 45°13' E 036°32'3 4.5
2017-Dec-09 17:26N 45°12' E 036°29'3 6.8
2017-Dec-09 17:01N 45°09' E 036°29'  

Dump ship's entire track history